createdAt,value
2023-12-30T00:01:11.444Z,88.21
2023-12-30T00:03:39.562Z,88.30
2023-12-30T00:06:08.630Z,89.11
2023-12-30T00:08:36.775Z,89.29
2023-12-30T00:11:04.894Z,89.25
2023-12-30T00:13:32.903Z,89.52
2023-12-30T00:16:00.893Z,90.08
2023-12-30T00:18:28.865Z,90.54
2023-12-30T00:20:56.849Z,90.84
2023-12-30T00:23:27.013Z,90.98
2023-12-30T00:25:57.754Z,91.12
2023-12-30T00:28:25.624Z,91.70
2023-12-30T00:30:53.832Z,91.92
2023-12-30T00:33:21.934Z,92.26
2023-12-30T00:35:49.952Z,92.92
2023-12-30T00:38:24.129Z,93.13
2023-12-30T00:40:52.735Z,94.43
2023-12-30T00:43:23.854Z,94.16
2023-12-30T00:45:52.102Z,93.48
2023-12-30T00:48:21.814Z,93.23
2023-12-30T00:50:53.139Z,93.76
2023-12-30T00:53:25.279Z,93.51
2023-12-30T00:55:57.072Z,92.29
2023-12-30T00:58:25.901Z,92.07
2023-12-30T01:00:54.256Z,91.25
2023-12-30T01:03:26.623Z,91.26
2023-12-30T01:05:54.794Z,90.95
2023-12-30T01:08:24.522Z,90.94
2023-12-30T01:11:15.742Z,90.38
2023-12-30T01:13:43.952Z,89.46
2023-12-30T01:16:17.663Z,89.51
2023-12-30T01:18:50.925Z,89.00
2023-12-30T01:21:36.946Z,88.44
2023-12-30T01:24:05.431Z,88.93
2023-12-30T01:26:41.136Z,90.36
2023-12-30T01:29:21.960Z,90.64
2023-12-30T01:31:50.383Z,91.36
2023-12-30T01:34:18.694Z,91.57
2023-12-30T01:36:47.007Z,90.25
2023-12-30T01:39:15.444Z,89.59
2023-12-30T01:41:43.535Z,89.24
2023-12-30T01:44:11.674Z,88.25
2023-12-30T01:46:40.984Z,86.53
2023-12-30T01:49:09.177Z,86.53
2023-12-30T01:51:37.316Z,86.86
2023-12-30T01:54:06.194Z,87.02
2023-12-30T01:56:35.177Z,86.66
2023-12-30T01:59:04.056Z,86.60
2023-12-30T02:01:32.770Z,86.45
2023-12-30T02:04:01.668Z,86.12
2023-12-30T02:06:29.803Z,85.59
2023-12-30T02:08:58.014Z,86.11
2023-12-30T02:11:26.601Z,85.44
2023-12-30T02:13:57.113Z,85.12
2023-12-30T02:16:27.658Z,84.66
2023-12-30T02:18:56.114Z,84.20
2023-12-30T02:21:24.532Z,84.16
2023-12-30T02:23:55.873Z,83.79
2023-12-30T02:26:25.221Z,87.28
2023-12-30T02:28:56.090Z,87.95
2023-12-30T02:31:24.247Z,88.52
2023-12-30T02:33:54.653Z,88.26
2023-12-30T02:36:24.935Z,88.27
2023-12-30T02:38:53.500Z,86.94
2023-12-30T02:41:21.702Z,87.12
2023-12-30T02:43:59.280Z,87.24
2023-12-30T02:46:28.195Z,86.90
2023-12-30T02:49:05.513Z,85.89
2023-12-30T02:51:45.153Z,85.25
2023-12-30T02:54:17.579Z,84.89
2023-12-30T02:56:45.601Z,84.77
2023-12-30T02:59:13.485Z,84.07
2023-12-30T03:01:41.896Z,84.34
2023-12-30T03:04:10.009Z,85.13
2023-12-30T03:06:38.036Z,84.72
2023-12-30T03:09:06.026Z,84.46
2023-12-30T03:11:34.165Z,84.37
2023-12-30T03:14:02.267Z,83.60
2023-12-30T03:16:30.474Z,83.82
2023-12-30T03:18:59.043Z,83.54
2023-12-30T03:21:27.466Z,83.43
2023-12-30T03:23:55.629Z,83.90
2023-12-30T03:26:24.176Z,84.25
2023-12-30T03:28:52.262Z,84.81
2023-12-30T03:31:30.115Z,85.19
2023-12-30T03:33:58.324Z,85.82
2023-12-30T03:36:26.493Z,85.57
2023-12-30T03:38:55.073Z,85.83
2023-12-30T03:41:23.231Z,85.89
2023-12-30T03:43:51.691Z,86.13
2023-12-30T03:46:19.730Z,86.41
2023-12-30T03:48:47.871Z,86.56
2023-12-30T03:51:16.044Z,86.88
2023-12-30T03:53:44.122Z,87.28
2023-12-30T03:56:13.555Z,87.88
2023-12-30T03:58:41.558Z,87.87
2023-12-30T04:01:09.757Z,88.52
2023-12-30T04:03:37.851Z,89.35
2023-12-30T04:06:05.969Z,90.07
2023-12-30T04:08:33.956Z,89.97
2023-12-30T04:11:01.859Z,89.88
2023-12-30T04:13:29.898Z,89.26
2023-12-30T04:15:58.146Z,89.26
2023-12-30T04:18:26.343Z,90.07
2023-12-30T04:20:54.409Z,92.58
2023-12-30T04:23:22.361Z,94.28
2023-12-30T04:25:50.633Z,95.33
2023-12-30T04:28:18.659Z,95.30
2023-12-30T04:30:46.804Z,94.77
2023-12-30T04:33:14.998Z,94.77
2023-12-30T04:35:43.032Z,95.63
2023-12-30T04:38:10.981Z,98.96
2023-12-30T04:40:38.964Z,99.91
2023-12-30T04:43:07.152Z,100.00
2023-12-30T04:45:35.178Z,100.00
2023-12-30T04:48:03.581Z,100.00
2023-12-30T04:50:33.440Z,100.00
2023-12-30T04:53:01.834Z,100.00
2023-12-30T04:55:30.595Z,100.00
2023-12-30T04:57:59.064Z,100.00
2023-12-30T05:00:27.301Z,100.00
2023-12-30T05:02:56.587Z,100.00
2023-12-30T05:05:24.918Z,100.00
2023-12-30T05:07:53.062Z,100.00
2023-12-30T05:10:21.078Z,100.00
2023-12-30T05:12:50.819Z,100.00
2023-12-30T05:15:19.048Z,100.00
2023-12-30T05:17:47.116Z,100.00
2023-12-30T05:20:17.710Z,100.00
2023-12-30T05:22:46.064Z,100.00
2023-12-30T05:25:14.302Z,100.00
2023-12-30T05:27:42.223Z,100.00
2023-12-30T05:30:10.861Z,100.00
2023-12-30T05:32:38.966Z,100.00
2023-12-30T05:35:11.106Z,100.00
2023-12-30T05:37:39.287Z,100.00
2023-12-30T05:40:09.712Z,100.00
2023-12-30T05:42:38.211Z,100.00
2023-12-30T05:45:07.752Z,100.00
2023-12-30T05:47:36.488Z,100.00
2023-12-30T05:50:05.284Z,100.00
2023-12-30T05:52:33.652Z,100.00
2023-12-30T05:55:01.713Z,100.00
2023-12-30T05:57:30.205Z,100.00
2023-12-30T05:59:59.249Z,100.00
2023-12-30T06:02:27.299Z,100.00
2023-12-30T06:04:55.404Z,100.00
2023-12-30T06:07:23.420Z,100.00
2023-12-30T06:09:51.563Z,100.00
2023-12-30T06:12:19.491Z,100.00
2023-12-30T06:14:47.484Z,100.00
2023-12-30T06:17:16.086Z,100.00
2023-12-30T06:19:45.332Z,100.00
2023-12-30T06:22:13.419Z,100.00
2023-12-30T06:24:41.422Z,100.00
2023-12-30T06:27:09.360Z,100.00
2023-12-30T06:29:37.231Z,100.00
2023-12-30T06:32:06.697Z,100.00
2023-12-30T06:34:35.925Z,100.00
2023-12-30T06:37:04.555Z,100.00
2023-12-30T06:39:32.569Z,100.00
2023-12-30T06:42:01.811Z,100.00
2023-12-30T06:44:30.257Z,100.00
2023-12-30T06:46:59.071Z,100.00
2023-12-30T06:49:27.440Z,100.00
2023-12-30T06:51:55.811Z,100.00
2023-12-30T06:54:23.928Z,100.00
2023-12-30T06:56:56.186Z,100.00
2023-12-30T06:59:24.202Z,100.00
2023-12-30T07:01:52.144Z,100.00
2023-12-30T07:04:20.236Z,100.00
2023-12-30T07:06:48.641Z,100.00
2023-12-30T07:09:16.814Z,100.00
2023-12-30T07:11:44.864Z,100.00
2023-12-30T07:14:12.952Z,100.00
2023-12-30T07:16:41.494Z,100.00
2023-12-30T07:19:09.500Z,100.00
2023-12-30T07:21:37.482Z,100.00
2023-12-30T07:24:05.966Z,100.00
2023-12-30T07:26:33.996Z,100.00
2023-12-30T07:29:02.054Z,100.00
2023-12-30T07:31:29.957Z,100.00
2023-12-30T07:33:58.486Z,100.00
2023-12-30T07:36:28.232Z,100.00
2023-12-30T07:38:56.239Z,100.00
2023-12-30T07:41:24.671Z,100.00
2023-12-30T07:43:52.607Z,100.00
2023-12-30T07:46:20.929Z,100.00
2023-12-30T07:48:48.911Z,100.00
2023-12-30T07:51:17.169Z,100.00
2023-12-30T07:53:45.161Z,100.00
2023-12-30T07:56:13.158Z,100.00
2023-12-30T07:58:41.427Z,100.00
2023-12-30T08:01:10.046Z,99.55
2023-12-30T08:03:38.016Z,97.63
2023-12-30T08:06:06.751Z,96.26
2023-12-30T08:08:34.737Z,95.47
2023-12-30T08:11:02.850Z,95.27
2023-12-30T08:13:30.860Z,93.81
2023-12-30T08:15:58.849Z,94.23
2023-12-30T08:18:27.015Z,93.06
2023-12-30T08:20:55.401Z,92.33
2023-12-30T08:23:23.408Z,92.16
2023-12-30T08:25:51.476Z,91.47
2023-12-30T08:28:19.502Z,91.01
2023-12-30T08:30:47.580Z,90.89
2023-12-30T08:33:15.871Z,91.12
2023-12-30T08:35:43.926Z,90.72
2023-12-30T08:38:12.261Z,90.77
2023-12-30T08:40:40.377Z,91.09
2023-12-30T08:43:08.495Z,90.66
2023-12-30T08:45:36.494Z,89.75
2023-12-30T08:48:06.007Z,89.10
2023-12-30T08:50:34.406Z,88.88
2023-12-30T08:53:02.521Z,88.08
2023-12-30T08:55:30.683Z,88.03
2023-12-30T08:57:58.720Z,87.58
2023-12-30T09:00:26.801Z,87.13
2023-12-30T09:02:56.684Z,86.19
2023-12-30T09:05:27.645Z,85.79
2023-12-30T09:07:56.214Z,84.61
2023-12-30T09:10:24.157Z,84.31
2023-12-30T09:12:52.256Z,85.11
2023-12-30T09:15:20.169Z,85.78
2023-12-30T09:17:48.247Z,86.60
2023-12-30T09:20:16.572Z,88.57
2023-12-30T09:22:44.889Z,91.59
2023-12-30T09:25:13.135Z,94.06
2023-12-30T09:27:41.248Z,94.82
2023-12-30T09:30:09.980Z,95.83
2023-12-30T09:32:38.242Z,96.24
2023-12-30T09:35:07.405Z,96.59
2023-12-30T09:37:35.454Z,96.35
2023-12-30T09:40:04.044Z,96.25
2023-12-30T09:42:32.182Z,97.41
2023-12-30T09:45:01.118Z,97.55
2023-12-30T09:47:30.891Z,97.20
2023-12-30T09:49:59.304Z,96.82
2023-12-30T09:52:27.276Z,96.18
2023-12-30T09:54:55.418Z,95.47
2023-12-30T09:57:23.452Z,94.99
2023-12-30T09:59:52.985Z,93.80
2023-12-30T10:02:20.974Z,92.75
2023-12-30T10:04:50.819Z,91.70
2023-12-30T10:07:20.098Z,90.51
2023-12-30T10:09:48.368Z,88.42
2023-12-30T10:12:16.439Z,87.63
2023-12-30T10:14:44.308Z,86.39
2023-12-30T10:17:12.953Z,84.96
2023-12-30T10:19:41.166Z,84.11
2023-12-30T10:22:09.998Z,82.65
2023-12-30T10:24:38.543Z,82.00
2023-12-30T10:27:06.698Z,82.02
2023-12-30T10:29:46.397Z,81.39
2023-12-30T10:32:22.561Z,80.86
2023-12-30T10:34:51.161Z,80.51
2023-12-30T10:37:23.898Z,79.65
2023-12-30T10:39:54.673Z,79.35
2023-12-30T10:42:22.687Z,78.63
2023-12-30T10:44:51.610Z,78.38
2023-12-30T10:47:22.683Z,78.54
2023-12-30T10:49:55.994Z,77.83
2023-12-30T10:52:28.058Z,77.63
2023-12-30T10:55:10.299Z,77.47
2023-12-30T10:57:46.026Z,76.94
2023-12-30T11:00:16.831Z,76.66
2023-12-30T11:02:46.727Z,76.65
2023-12-30T11:05:31.113Z,76.90
2023-12-30T11:07:59.372Z,76.65
2023-12-30T11:10:28.622Z,76.27
2023-12-30T11:12:57.681Z,75.91
2023-12-30T11:15:31.713Z,76.19
2023-12-30T11:18:00.342Z,76.15
2023-12-30T11:20:34.448Z,75.42
2023-12-30T11:23:05.202Z,75.71
2023-12-30T11:25:47.315Z,75.44
2023-12-30T11:28:15.653Z,75.61
2023-12-30T11:30:52.575Z,75.73
2023-12-30T11:33:21.058Z,74.83
2023-12-30T11:35:55.347Z,75.41
2023-12-30T11:38:25.704Z,75.37
2023-12-30T11:40:58.291Z,76.35
2023-12-30T11:43:26.667Z,76.12
2023-12-30T11:45:55.175Z,76.74
2023-12-30T11:48:24.269Z,76.60
2023-12-30T11:50:55.280Z,76.96
2023-12-30T11:53:23.422Z,77.10
2023-12-30T11:55:51.526Z,77.47
2023-12-30T11:58:19.517Z,78.27
2023-12-30T12:00:47.684Z,77.63
2023-12-30T12:03:15.695Z,77.59
2023-12-30T12:05:43.736Z,77.94
2023-12-30T12:08:12.387Z,77.96
2023-12-30T12:10:40.495Z,78.81
2023-12-30T12:13:11.086Z,78.43
2023-12-30T12:15:40.880Z,77.98
2023-12-30T12:18:09.328Z,78.09
2023-12-30T12:21:17.561Z,78.29
2023-12-30T12:23:45.687Z,78.19
2023-12-30T12:26:13.632Z,78.30
2023-12-30T12:28:42.038Z,78.17
2023-12-30T12:31:15.125Z,78.09
2023-12-30T12:33:43.167Z,78.75
2023-12-30T12:36:11.585Z,78.25
2023-12-30T12:38:39.490Z,79.18
2023-12-30T12:41:07.599Z,78.60
2023-12-30T12:43:35.670Z,78.80
2023-12-30T12:46:04.979Z,78.47
2023-12-30T12:48:33.382Z,78.11
2023-12-30T12:51:02.185Z,78.21
2023-12-30T12:53:30.124Z,78.10
2023-12-30T12:56:05.815Z,78.42
2023-12-30T12:58:36.676Z,78.36
2023-12-30T13:01:08.691Z,78.30
2023-12-30T13:03:37.963Z,78.86
2023-12-30T13:06:14.116Z,78.58
2023-12-30T13:08:53.490Z,78.62
2023-12-30T13:11:31.447Z,77.91
2023-12-30T13:14:02.010Z,77.60
2023-12-30T13:16:31.653Z,77.36
2023-12-30T13:19:02.304Z,77.76
2023-12-30T13:21:30.512Z,77.99
2023-12-30T13:23:59.167Z,77.73
2023-12-30T13:26:28.596Z,77.97
2023-12-30T13:28:57.584Z,78.20
2023-12-30T13:31:27.129Z,78.89
2023-12-30T13:33:57.370Z,78.55
2023-12-30T13:36:26.879Z,78.68
2023-12-30T13:39:00.906Z,78.17
2023-12-30T13:41:29.061Z,77.69
2023-12-30T13:43:58.042Z,77.04
2023-12-30T13:46:44.758Z,77.06
2023-12-30T13:49:13.226Z,76.91
2023-12-30T13:51:45.418Z,76.76
2023-12-30T13:54:15.614Z,77.04
2023-12-30T13:56:45.853Z,76.77
2023-12-30T13:59:13.883Z,76.80
2023-12-30T14:01:42.116Z,76.43
2023-12-30T14:04:10.392Z,76.34
2023-12-30T14:06:40.624Z,76.24
2023-12-30T14:09:33.150Z,76.45
2023-12-30T14:12:03.808Z,76.48
2023-12-30T14:14:41.634Z,76.58
2023-12-30T14:17:15.185Z,76.17
2023-12-30T14:19:43.390Z,76.33
2023-12-30T14:22:11.551Z,76.55
2023-12-30T14:24:40.090Z,75.67
2023-12-30T14:27:07.999Z,75.65
2023-12-30T14:29:37.139Z,75.67
2023-12-30T14:32:06.449Z,75.34
2023-12-30T14:34:36.291Z,75.64
2023-12-30T14:37:06.304Z,75.50
2023-12-30T14:39:34.415Z,75.14
2023-12-30T14:42:02.574Z,74.93
2023-12-30T14:44:30.564Z,74.96
2023-12-30T14:46:59.018Z,74.72
2023-12-30T14:49:27.997Z,74.69
2023-12-30T14:51:55.983Z,74.80
2023-12-30T14:54:24.359Z,74.81
2023-12-30T14:56:52.484Z,74.89
2023-12-30T14:59:20.804Z,74.81
2023-12-30T15:01:48.835Z,74.95
2023-12-30T15:04:16.849Z,75.33
2023-12-30T15:06:44.866Z,75.14
2023-12-30T15:09:13.564Z,75.22
2023-12-30T15:11:41.544Z,75.07
2023-12-30T15:14:09.819Z,75.24
2023-12-30T15:16:38.133Z,75.61
2023-12-30T15:19:06.443Z,75.39
2023-12-30T15:21:35.468Z,75.22
2023-12-30T15:24:03.928Z,75.74
2023-12-30T15:26:31.898Z,74.99
2023-12-30T15:28:59.913Z,75.01
2023-12-30T15:31:28.259Z,74.35
2023-12-30T15:33:57.118Z,74.35
2023-12-30T15:36:25.420Z,74.08
2023-12-30T15:38:53.468Z,73.84
2023-12-30T15:41:23.759Z,73.65
2023-12-30T15:43:51.708Z,73.99
2023-12-30T15:46:20.261Z,74.27
2023-12-30T15:48:50.304Z,74.63
2023-12-30T15:51:19.416Z,74.38
2023-12-30T15:53:47.862Z,74.67
2023-12-30T15:59:44.492Z,75.39
2023-12-30T16:02:19.174Z,75.51
2023-12-30T16:04:48.561Z,76.07
2023-12-30T16:07:16.611Z,76.47
2023-12-30T16:09:44.842Z,76.50
2023-12-30T16:12:12.920Z,76.51
2023-12-30T16:14:41.075Z,76.51
2023-12-30T16:17:09.164Z,76.60
2023-12-30T16:19:37.536Z,76.91
2023-12-30T16:22:05.894Z,76.91
2023-12-30T16:24:34.027Z,77.16
2023-12-30T16:27:02.051Z,77.53
2023-12-30T16:29:29.973Z,77.73
2023-12-30T16:32:01.748Z,77.72
2023-12-30T16:34:29.989Z,77.80
2023-12-30T16:36:58.109Z,78.02
2023-12-30T16:39:26.239Z,78.20
2023-12-30T16:41:54.751Z,78.62
2023-12-30T16:44:23.019Z,80.49
2023-12-30T16:46:52.066Z,79.91
2023-12-30T16:49:20.499Z,79.54
2023-12-30T16:51:48.525Z,79.81
2023-12-30T16:54:16.574Z,80.00
2023-12-30T16:56:44.734Z,80.23
2023-12-30T16:59:12.712Z,80.43
2023-12-30T17:01:43.560Z,80.59
2023-12-30T17:04:11.883Z,80.69
2023-12-30T17:06:39.863Z,81.02
2023-12-30T17:09:07.808Z,80.87
2023-12-30T17:11:40.706Z,81.15
2023-12-30T17:14:11.040Z,81.20
2023-12-30T17:16:39.172Z,81.30
2023-12-30T17:19:07.354Z,81.12
2023-12-30T17:21:35.930Z,81.31
2023-12-30T17:24:04.599Z,81.45
2023-12-30T17:26:32.880Z,81.33
2023-12-30T17:29:00.988Z,81.35
2023-12-30T17:31:28.971Z,81.41
2023-12-30T17:33:57.209Z,81.29
2023-12-30T17:36:26.766Z,81.61
2023-12-30T17:38:54.698Z,81.55
2023-12-30T17:41:22.724Z,81.57
2023-12-30T17:43:50.700Z,81.66
2023-12-30T17:46:18.717Z,81.76
2023-12-30T17:48:46.681Z,82.14
2023-12-30T17:51:14.590Z,82.32
2023-12-30T17:53:42.461Z,82.53
2023-12-30T17:56:10.744Z,82.69
2023-12-30T17:58:39.087Z,82.88
2023-12-30T18:01:09.315Z,82.95
2023-12-30T18:03:37.444Z,82.92
2023-12-30T18:06:05.497Z,82.69
2023-12-30T18:08:33.450Z,82.46
2023-12-30T18:11:01.328Z,82.29
2023-12-30T18:13:29.367Z,82.14
2023-12-30T18:15:59.903Z,81.96
2023-12-30T18:18:27.944Z,81.77
2023-12-30T18:20:56.004Z,81.79
2023-12-30T18:23:26.702Z,81.30
2023-12-30T18:26:15.329Z,80.89
2023-12-30T18:28:43.413Z,80.79
2023-12-30T18:31:12.015Z,80.10
2023-12-30T18:33:40.422Z,79.55
2023-12-30T18:36:09.225Z,80.20
2023-12-30T18:38:37.224Z,79.86
2023-12-30T18:41:05.229Z,79.26
2023-12-30T18:43:34.961Z,79.03
2023-12-30T18:46:03.203Z,78.84
2023-12-30T18:48:31.494Z,78.68
2023-12-30T18:51:00.500Z,78.56
2023-12-30T18:53:28.542Z,78.57
2023-12-30T18:56:04.428Z,78.50
2023-12-30T18:58:32.638Z,78.84
2023-12-30T19:01:01.632Z,78.67
2023-12-30T19:03:30.850Z,78.73
2023-12-30T19:05:59.538Z,78.78
2023-12-30T19:08:31.338Z,79.46
2023-12-30T19:10:59.588Z,79.85
2023-12-30T19:13:27.612Z,79.56
2023-12-30T19:15:56.023Z,79.48
2023-12-30T19:18:24.054Z,79.60
2023-12-30T19:20:53.533Z,79.40
2023-12-30T19:23:21.441Z,79.43
2023-12-30T19:25:50.432Z,79.86
2023-12-30T19:28:18.519Z,79.92
2023-12-30T19:30:46.743Z,79.95
2023-12-30T19:33:15.424Z,80.17
2023-12-30T19:35:44.216Z,80.18
2023-12-30T19:38:12.686Z,80.48
2023-12-30T19:40:46.762Z,80.89
2023-12-30T19:43:15.294Z,81.27
2023-12-30T19:45:43.650Z,81.38
2023-12-30T19:48:11.797Z,81.53
2023-12-30T19:50:43.985Z,81.56
2023-12-30T19:53:16.634Z,81.62
2023-12-30T19:55:44.817Z,81.60
2023-12-30T19:58:13.003Z,81.69
2023-12-30T20:00:41.303Z,81.92
2023-12-30T20:03:12.027Z,82.14
2023-12-30T20:05:40.165Z,82.22
2023-12-30T20:08:08.390Z,82.13
2023-12-30T20:10:36.710Z,82.18
2023-12-30T20:13:05.318Z,82.40
2023-12-30T20:15:33.632Z,82.47
2023-12-30T20:18:03.357Z,82.77
2023-12-30T20:20:31.908Z,82.63
2023-12-30T20:23:01.078Z,82.91
2023-12-30T20:25:31.913Z,82.97
2023-12-30T20:28:01.421Z,82.96
2023-12-30T20:30:29.819Z,83.08
2023-12-30T20:32:58.112Z,83.34
2023-12-30T20:35:26.581Z,83.59
2023-12-30T20:37:55.104Z,83.73
2023-12-30T20:40:23.212Z,84.13
2023-12-30T20:42:51.286Z,84.26
2023-12-30T20:45:19.803Z,84.63
2023-12-30T20:47:47.806Z,84.79
2023-12-30T20:50:16.008Z,85.00
2023-12-30T20:52:44.480Z,85.11
2023-12-30T20:55:19.440Z,85.18
2023-12-30T20:57:49.673Z,85.53
2023-12-30T21:00:21.514Z,85.17
2023-12-30T21:02:49.703Z,85.22
2023-12-30T21:05:17.936Z,85.05
2023-12-30T21:07:46.010Z,84.73
2023-12-30T21:10:14.961Z,84.76
2023-12-30T21:12:43.029Z,84.72
2023-12-30T21:15:11.384Z,84.32
2023-12-30T21:17:39.753Z,84.65
2023-12-30T21:20:10.955Z,84.89
2023-12-30T21:22:39.564Z,84.77
2023-12-30T21:25:16.175Z,84.60
2023-12-30T21:27:51.468Z,84.24
2023-12-30T21:30:19.493Z,84.23
2023-12-30T21:32:50.294Z,84.10
2023-12-30T21:35:21.697Z,84.56
2023-12-30T21:37:50.585Z,84.27
2023-12-30T21:40:19.937Z,84.79
2023-12-30T21:42:48.286Z,85.25
2023-12-30T21:45:18.346Z,85.33
2023-12-30T21:47:46.825Z,85.49
2023-12-30T21:50:15.206Z,85.65
2023-12-30T21:52:44.581Z,86.38
2023-12-30T21:55:21.687Z,87.38
2023-12-30T21:57:51.397Z,88.53
2023-12-30T22:00:19.737Z,87.07
2023-12-30T22:02:48.243Z,87.86
2023-12-30T22:05:18.783Z,87.53
2023-12-30T22:07:46.930Z,88.27
2023-12-30T22:10:15.406Z,88.34
2023-12-30T22:12:43.433Z,88.07
2023-12-30T22:15:11.538Z,88.21
2023-12-30T22:17:39.794Z,89.88
2023-12-30T22:20:10.901Z,92.04
2023-12-30T22:22:39.137Z,91.15
2023-12-30T22:25:10.076Z,91.03
2023-12-30T22:27:41.667Z,90.46
2023-12-30T22:30:10.306Z,90.31
2023-12-30T22:32:38.746Z,89.63
2023-12-30T22:35:18.363Z,90.08
2023-12-30T22:37:46.641Z,90.12
2023-12-30T22:40:15.446Z,90.07
2023-12-30T22:42:46.286Z,90.54
2023-12-30T22:45:16.961Z,90.30
2023-12-30T22:47:47.595Z,90.65
2023-12-30T22:50:24.936Z,90.70
2023-12-30T22:52:53.240Z,91.05
2023-12-30T22:55:22.990Z,90.91
2023-12-30T22:57:51.161Z,90.58
2023-12-30T23:00:27.415Z,90.87
2023-12-30T23:02:56.319Z,91.44
2023-12-30T23:05:24.550Z,91.15
2023-12-30T23:07:52.783Z,90.71
2023-12-30T23:10:20.789Z,90.33
2023-12-30T23:12:48.928Z,90.41
2023-12-30T23:15:17.295Z,90.93
2023-12-30T23:17:45.630Z,91.01
2023-12-30T23:20:14.909Z,91.50
2023-12-30T23:22:43.443Z,91.01
2023-12-30T23:25:11.627Z,91.30
2023-12-30T23:27:40.240Z,91.54
2023-12-30T23:30:08.890Z,91.60
2023-12-30T23:32:37.776Z,91.61
2023-12-30T23:35:10.024Z,92.00
2023-12-30T23:38:40.672Z,92.38
2023-12-30T23:40:44.790Z,92.45
2023-12-30T23:43:20.154Z,92.05
2023-12-30T23:45:55.889Z,92.16
2023-12-30T23:48:24.525Z,92.36
2023-12-30T23:50:54.213Z,92.79
2023-12-30T23:53:27.101Z,92.81
2023-12-30T23:55:55.221Z,92.80
2023-12-30T23:58:23.264Z,92.66
